sensor_id;sensor_type;location;lat;lon;timestamp;temperature;humidity
10437;DHT22;5265;50.006;9.202;2022-11-15T00:02:08;10.50;99.90
10437;DHT22;5265;50.006;9.202;2022-11-15T00:04:54;10.50;99.90
10437;DHT22;5265;50.006;9.202;2022-11-15T00:07:40;10.50;99.90
10437;DHT22;5265;50.006;9.202;2022-11-15T00:10:27;10.40;99.90
10437;DHT22;5265;50.006;9.202;2022-11-15T00:13:13;10.30;99.90
10437;DHT22;5265;50.006;9.202;2022-11-15T00:16:00;10.30;99.90
10437;DHT22;5265;50.006;9.202;2022-11-15T00:18:45;10.20;99.90
10437;DHT22;5265;50.006;9.202;2022-11-15T00:21:31;10.20;99.90
10437;DHT22;5265;50.006;9.202;2022-11-15T00:24:18;10.20;99.90
10437;DHT22;5265;50.006;9.202;2022-11-15T00:27:05;10.20;99.90
10437;DHT22;5265;50.006;9.202;2022-11-15T00:29:51;10.10;99.90
10437;DHT22;5265;50.006;9.202;2022-11-15T00:32:37;10.10;99.90
10437;DHT22;5265;50.006;9.202;2022-11-15T00:35:23;10.10;99.90
10437;DHT22;5265;50.006;9.202;2022-11-15T00:38:09;10.10;99.90
10437;DHT22;5265;50.006;9.202;2022-11-15T00:40:55;10.10;99.90
10437;DHT22;5265;50.006;9.202;2022-11-15T00:43:42;10.00;99.90
10437;DHT22;5265;50.006;9.202;2022-11-15T00:46:28;10.00;99.90
10437;DHT22;5265;50.006;9.202;2022-11-15T00:49:14;10.00;99.90
10437;DHT22;5265;50.006;9.202;2022-11-15T00:52:00;10.00;99.90
10437;DHT22;5265;50.006;9.202;2022-11-15T00:54:46;9.90;99.90
10437;DHT22;5265;50.006;9.202;2022-11-15T00:57:32;9.90;99.90
10437;DHT22;5265;50.006;9.202;2022-11-15T01:00:19;9.90;99.90
10437;DHT22;5265;50.006;9.202;2022-11-15T01:03:05;9.90;99.90
10437;DHT22;5265;50.006;9.202;2022-11-15T01:05:51;9.80;99.90
10437;DHT22;5265;50.006;9.202;2022-11-15T01:08:38;9.80;99.90
10437;DHT22;5265;50.006;9.202;2022-11-15T01:11:24;9.70;99.90
10437;DHT22;5265;50.006;9.202;2022-11-15T01:14:09;9.70;99.90
10437;DHT22;5265;50.006;9.202;2022-11-15T01:16:57;9.80;99.90
10437;DHT22;5265;50.006;9.202;2022-11-15T01:19:43;9.70;99.90
10437;DHT22;5265;50.006;9.202;2022-11-15T01:22:29;9.70;99.90
10437;DHT22;5265;50.006;9.202;2022-11-15T01:25:15;9.60;99.90
10437;DHT22;5265;50.006;9.202;2022-11-15T01:28:00;9.60;99.90
10437;DHT22;5265;50.006;9.202;2022-11-15T01:30:46;9.50;99.90
10437;DHT22;5265;50.006;9.202;2022-11-15T01:33:35;9.50;99.90
10437;DHT22;5265;50.006;9.202;2022-11-15T01:36:21;9.50;99.90
10437;DHT22;5265;50.006;9.202;2022-11-15T01:39:07;9.50;99.90
10437;DHT22;5265;50.006;9.202;2022-11-15T01:41:53;9.40;1.00
10437;DHT22;5265;50.006;9.202;2022-11-15T01:44:43;9.50;1.00
10437;DHT22;5265;50.006;9.202;2022-11-15T01:47:30;9.40;1.00
10437;DHT22;5265;50.006;9.202;2022-11-15T01:50:19;9.50;1.00
10437;DHT22;5265;50.006;9.202;2022-11-15T01:53:05;9.40;1.00
10437;DHT22;5265;50.006;9.202;2022-11-15T01:55:51;9.30;1.00
10437;DHT22;5265;50.006;9.202;2022-11-15T01:58:37;9.30;1.00
10437;DHT22;5265;50.006;9.202;2022-11-15T02:01:24;9.30;1.00
10437;DHT22;5265;50.006;9.202;2022-11-15T02:04:11;9.30;1.00
10437;DHT22;5265;50.006;9.202;2022-11-15T02:06:59;9.30;1.00
10437;DHT22;5265;50.006;9.202;2022-11-15T02:09:47;9.30;1.00
10437;DHT22;5265;50.006;9.202;2022-11-15T02:12:33;9.30;1.00
10437;DHT22;5265;50.006;9.202;2022-11-15T02:15:19;9.30;1.00
10437;DHT22;5265;50.006;9.202;2022-11-15T02:18:08;9.30;1.00
10437;DHT22;5265;50.006;9.202;2022-11-15T02:20:58;9.30;1.00
10437;DHT22;5265;50.006;9.202;2022-11-15T02:23:55;9.20;1.00
10437;DHT22;5265;50.006;9.202;2022-11-15T02:30:02;9.30;1.00
10437;DHT22;5265;50.006;9.202;2022-11-15T02:32:52;9.30;1.00
10437;DHT22;5265;50.006;9.202;2022-11-15T02:35:40;9.20;1.00
10437;DHT22;5265;50.006;9.202;2022-11-15T02:38:31;9.30;1.00
10437;DHT22;5265;50.006;9.202;2022-11-15T02:41:20;9.30;1.00
10437;DHT22;5265;50.006;9.202;2022-11-15T02:44:12;9.20;1.00
10437;DHT22;5265;50.006;9.202;2022-11-15T02:46:58;9.20;1.00
10437;DHT22;5265;50.006;9.202;2022-11-15T02:50:02;9.30;1.00
10437;DHT22;5265;50.006;9.202;2022-11-15T02:52:49;9.30;1.00
10437;DHT22;5265;50.006;9.202;2022-11-15T02:55:36;9.40;1.00
10437;DHT22;5265;50.006;9.202;2022-11-15T02:58:34;9.50;1.00
10437;DHT22;5265;50.006;9.202;2022-11-15T03:01:27;9.30;1.00
10437;DHT22;5265;50.006;9.202;2022-11-15T03:04:19;9.30;1.00
10437;DHT22;5265;50.006;9.202;2022-11-15T03:07:10;9.20;1.00
10437;DHT22;5265;50.006;9.202;2022-11-15T03:09:59;9.20;1.00
10437;DHT22;5265;50.006;9.202;2022-11-15T03:12:49;9.20;1.00
10437;DHT22;5265;50.006;9.202;2022-11-15T03:15:37;9.20;1.00
10437;DHT22;5265;50.006;9.202;2022-11-15T03:18:25;9.20;1.00
10437;DHT22;5265;50.006;9.202;2022-11-15T03:21:12;9.30;1.00
10437;DHT22;5265;50.006;9.202;2022-11-15T03:24:02;9.40;1.00
10437;DHT22;5265;50.006;9.202;2022-11-15T03:26:49;9.40;1.00
10437;DHT22;5265;50.006;9.202;2022-11-15T03:29:37;9.40;1.00
10437;DHT22;5265;50.006;9.202;2022-11-15T03:32:25;9.20;1.00
10437;DHT22;5265;50.006;9.202;2022-11-15T03:35:12;9.20;1.00
10437;DHT22;5265;50.006;9.202;2022-11-15T03:38:00;9.10;1.00
10437;DHT22;5265;50.006;9.202;2022-11-15T03:40:53;9.10;1.00
10437;DHT22;5265;50.006;9.202;2022-11-15T03:43:41;9.10;1.00
10437;DHT22;5265;50.006;9.202;2022-11-15T03:46:31;9.10;1.00
10437;DHT22;5265;50.006;9.202;2022-11-15T03:49:20;9.00;1.00
10437;DHT22;5265;50.006;9.202;2022-11-15T03:52:07;9.00;1.00
10437;DHT22;5265;50.006;9.202;2022-11-15T03:54:55;9.00;1.00
10437;DHT22;5265;50.006;9.202;2022-11-15T03:57:43;8.90;1.00
10437;DHT22;5265;50.006;9.202;2022-11-15T04:00:28;8.90;1.00
10437;DHT22;5265;50.006;9.202;2022-11-15T04:03:14;8.80;1.00
10437;DHT22;5265;50.006;9.202;2022-11-15T04:06:00;8.80;1.00
10437;DHT22;5265;50.006;9.202;2022-11-15T04:08:46;8.80;1.00
10437;DHT22;5265;50.006;9.202;2022-11-15T04:11:32;8.90;1.00
10437;DHT22;5265;50.006;9.202;2022-11-15T04:14:19;8.80;1.00
10437;DHT22;5265;50.006;9.202;2022-11-15T04:17:05;8.70;1.00
10437;DHT22;5265;50.006;9.202;2022-11-15T04:19:51;8.70;1.00
10437;DHT22;5265;50.006;9.202;2022-11-15T04:22:51;8.70;16.90
10437;DHT22;5265;50.006;9.202;2022-11-15T04:26:10;8.70;1.00
10437;DHT22;5265;50.006;9.202;2022-11-15T04:28:56;8.70;1.00
10437;DHT22;5265;50.006;9.202;2022-11-15T04:32:01;8.70;1.00
10437;DHT22;5265;50.006;9.202;2022-11-15T04:34:46;8.70;1.00
10437;DHT22;5265;50.006;9.202;2022-11-15T04:37:32;8.60;1.00
10437;DHT22;5265;50.006;9.202;2022-11-15T04:40:18;8.60;14.60
10437;DHT22;5265;50.006;9.202;2022-11-15T04:43:04;8.70;24.30
10437;DHT22;5265;50.006;9.202;2022-11-15T04:45:50;8.70;1.00
10437;DHT22;5265;50.006;9.202;2022-11-15T04:48:37;8.70;1.00
10437;DHT22;5265;50.006;9.202;2022-11-15T04:51:23;8.70;1.00
10437;DHT22;5265;50.006;9.202;2022-11-15T04:54:09;8.70;1.00
10437;DHT22;5265;50.006;9.202;2022-11-15T04:56:55;8.80;1.00
10437;DHT22;5265;50.006;9.202;2022-11-15T04:59:41;8.80;1.00
10437;DHT22;5265;50.006;9.202;2022-11-15T05:02:27;8.80;1.00
10437;DHT22;5265;50.006;9.202;2022-11-15T05:05:35;8.70;1.00
10437;DHT22;5265;50.006;9.202;2022-11-15T05:08:20;8.80;1.00
10437;DHT22;5265;50.006;9.202;2022-11-15T05:11:06;8.80;1.00
10437;DHT22;5265;50.006;9.202;2022-11-15T05:13:52;8.90;1.00
10437;DHT22;5265;50.006;9.202;2022-11-15T05:16:38;8.90;1.00
10437;DHT22;5265;50.006;9.202;2022-11-15T05:19:23;8.90;1.00
10437;DHT22;5265;50.006;9.202;2022-11-15T05:22:11;8.80;1.00
10437;DHT22;5265;50.006;9.202;2022-11-15T05:24:57;8.70;1.00
10437;DHT22;5265;50.006;9.202;2022-11-15T05:27:43;8.70;1.00
10437;DHT22;5265;50.006;9.202;2022-11-15T05:30:29;8.80;1.00
10437;DHT22;5265;50.006;9.202;2022-11-15T05:33:15;8.70;1.00
10437;DHT22;5265;50.006;9.202;2022-11-15T05:36:02;8.60;1.00
10437;DHT22;5265;50.006;9.202;2022-11-15T05:38:51;8.60;1.00
10437;DHT22;5265;50.006;9.202;2022-11-15T05:41:38;8.50;1.00
10437;DHT22;5265;50.006;9.202;2022-11-15T05:44:24;8.60;30.00
10437;DHT22;5265;50.006;9.202;2022-11-15T05:47:11;8.60;9.50
10437;DHT22;5265;50.006;9.202;2022-11-15T05:49:58;8.60;74.30
10437;DHT22;5265;50.006;9.202;2022-11-15T05:52:44;8.60;90.30
10437;DHT22;5265;50.006;9.202;2022-11-15T05:55:32;8.60;88.70
10437;DHT22;5265;50.006;9.202;2022-11-15T05:58:18;8.70;31.20
10437;DHT22;5265;50.006;9.202;2022-11-15T06:01:05;8.70;1.00
10437;DHT22;5265;50.006;9.202;2022-11-15T06:03:51;8.70;1.00
10437;DHT22;5265;50.006;9.202;2022-11-15T06:06:36;8.80;1.00
10437;DHT22;5265;50.006;9.202;2022-11-15T06:09:22;8.70;1.00
10437;DHT22;5265;50.006;9.202;2022-11-15T06:12:10;8.70;1.00
10437;DHT22;5265;50.006;9.202;2022-11-15T06:14:55;8.70;1.00
10437;DHT22;5265;50.006;9.202;2022-11-15T06:17:41;8.60;1.00
10437;DHT22;5265;50.006;9.202;2022-11-15T06:20:28;8.50;1.00
10437;DHT22;5265;50.006;9.202;2022-11-15T06:23:14;8.40;1.00
10437;DHT22;5265;50.006;9.202;2022-11-15T06:26:00;8.40;1.00
10437;DHT22;5265;50.006;9.202;2022-11-15T06:28:47;8.30;1.00
10437;DHT22;5265;50.006;9.202;2022-11-15T06:31:33;8.30;1.00
10437;DHT22;5265;50.006;9.202;2022-11-15T06:34:19;8.30;1.00
10437;DHT22;5265;50.006;9.202;2022-11-15T06:37:05;8.20;1.00
10437;DHT22;5265;50.006;9.202;2022-11-15T06:39:51;8.20;1.00
10437;DHT22;5265;50.006;9.202;2022-11-15T06:42:37;8.20;1.00
10437;DHT22;5265;50.006;9.202;2022-11-15T06:45:24;8.20;1.00
10437;DHT22;5265;50.006;9.202;2022-11-15T06:48:10;8.20;1.00
10437;DHT22;5265;50.006;9.202;2022-11-15T06:50:56;8.20;3.50
10437;DHT22;5265;50.006;9.202;2022-11-15T06:53:42;8.20;94.90
10437;DHT22;5265;50.006;9.202;2022-11-15T06:56:28;8.20;1.00
10437;DHT22;5265;50.006;9.202;2022-11-15T06:59:14;8.20;15.50
10437;DHT22;5265;50.006;9.202;2022-11-15T07:02:02;8.40;1.00
10437;DHT22;5265;50.006;9.202;2022-11-15T07:04:47;8.50;1.00
10437;DHT22;5265;50.006;9.202;2022-11-15T07:07:33;8.40;1.00
10437;DHT22;5265;50.006;9.202;2022-11-15T07:10:19;8.30;1.00
10437;DHT22;5265;50.006;9.202;2022-11-15T07:13:06;8.20;1.00
10437;DHT22;5265;50.006;9.202;2022-11-15T07:15:51;8.20;1.00
10437;DHT22;5265;50.006;9.202;2022-11-15T07:18:39;8.10;1.00
10437;DHT22;5265;50.006;9.202;2022-11-15T07:21:25;8.10;1.00
10437;DHT22;5265;50.006;9.202;2022-11-15T07:24:11;8.10;1.00
10437;DHT22;5265;50.006;9.202;2022-11-15T07:26:57;8.20;1.00
10437;DHT22;5265;50.006;9.202;2022-11-15T07:29:43;8.20;1.00
10437;DHT22;5265;50.006;9.202;2022-11-15T07:32:29;8.20;1.00
10437;DHT22;5265;50.006;9.202;2022-11-15T07:35:16;8.20;1.00
10437;DHT22;5265;50.006;9.202;2022-11-15T07:38:02;8.20;1.00
10437;DHT22;5265;50.006;9.202;2022-11-15T07:40:55;8.30;1.00
10437;DHT22;5265;50.006;9.202;2022-11-15T07:43:41;8.30;1.00
10437;DHT22;5265;50.006;9.202;2022-11-15T07:46:27;8.40;1.00
10437;DHT22;5265;50.006;9.202;2022-11-15T07:49:13;8.50;1.00
10437;DHT22;5265;50.006;9.202;2022-11-15T07:52:00;8.50;1.00
10437;DHT22;5265;50.006;9.202;2022-11-15T07:54:46;8.60;1.00
10437;DHT22;5265;50.006;9.202;2022-11-15T07:57:32;8.70;1.00
10437;DHT22;5265;50.006;9.202;2022-11-15T08:00:18;8.70;99.90
10437;DHT22;5265;50.006;9.202;2022-11-15T08:03:05;8.70;99.90
10437;DHT22;5265;50.006;9.202;2022-11-15T08:05:51;8.70;1.00
10437;DHT22;5265;50.006;9.202;2022-11-15T08:08:38;8.70;1.00
10437;DHT22;5265;50.006;9.202;2022-11-15T08:11:24;8.70;1.00
10437;DHT22;5265;50.006;9.202;2022-11-15T08:14:10;8.70;1.00
10437;DHT22;5265;50.006;9.202;2022-11-15T08:16:56;8.70;1.00
10437;DHT22;5265;50.006;9.202;2022-11-15T08:19:42;8.80;1.00
10437;DHT22;5265;50.006;9.202;2022-11-15T08:22:27;8.90;1.00
10437;DHT22;5265;50.006;9.202;2022-11-15T08:25:15;8.90;1.00
10437;DHT22;5265;50.006;9.202;2022-11-15T08:28:02;9.10;1.00
10437;DHT22;5265;50.006;9.202;2022-11-15T08:30:48;9.20;1.00
10437;DHT22;5265;50.006;9.202;2022-11-15T08:33:34;9.30;1.00
10437;DHT22;5265;50.006;9.202;2022-11-15T08:36:20;9.40;1.00
10437;DHT22;5265;50.006;9.202;2022-11-15T08:39:08;9.50;99.90
10437;DHT22;5265;50.006;9.202;2022-11-15T08:41:56;9.60;99.90
10437;DHT22;5265;50.006;9.202;2022-11-15T08:44:42;9.70;99.90
10437;DHT22;5265;50.006;9.202;2022-11-15T08:47:28;9.90;99.90
10437;DHT22;5265;50.006;9.202;2022-11-15T08:50:14;10.10;99.90
10437;DHT22;5265;50.006;9.202;2022-11-15T08:53:04;10.20;99.90
10437;DHT22;5265;50.006;9.202;2022-11-15T08:55:49;10.30;99.90
10437;DHT22;5265;50.006;9.202;2022-11-15T08:58:37;10.40;99.90
10437;DHT22;5265;50.006;9.202;2022-11-15T09:01:22;10.60;99.90
10437;DHT22;5265;50.006;9.202;2022-11-15T09:04:08;10.80;74.00
10437;DHT22;5265;50.006;9.202;2022-11-15T09:06:54;10.80;53.30
10437;DHT22;5265;50.006;9.202;2022-11-15T09:09:40;10.90;42.30
10437;DHT22;5265;50.006;9.202;2022-11-15T09:12:26;10.90;27.90
10437;DHT22;5265;50.006;9.202;2022-11-15T09:15:14;11.00;23.40
10437;DHT22;5265;50.006;9.202;2022-11-15T09:18:00;11.20;13.00
10437;DHT22;5265;50.006;9.202;2022-11-15T09:20:46;11.30;1.00
10437;DHT22;5265;50.006;9.202;2022-11-15T09:23:32;11.30;1.00
10437;DHT22;5265;50.006;9.202;2022-11-15T09:26:17;11.40;1.00
10437;DHT22;5265;50.006;9.202;2022-11-15T09:29:03;11.50;1.00
10437;DHT22;5265;50.006;9.202;2022-11-15T09:31:52;11.60;1.00
10437;DHT22;5265;50.006;9.202;2022-11-15T09:34:38;11.60;1.00
10437;DHT22;5265;50.006;9.202;2022-11-15T09:37:24;11.70;1.00
10437;DHT22;5265;50.006;9.202;2022-11-15T09:40:11;11.90;1.00
10437;DHT22;5265;50.006;9.202;2022-11-15T09:43:04;12.00;1.00
10437;DHT22;5265;50.006;9.202;2022-11-15T09:45:53;12.20;1.00
10437;DHT22;5265;50.006;9.202;2022-11-15T09:48:48;12.50;17.10
10437;DHT22;5265;50.006;9.202;2022-11-15T09:51:34;12.60;24.70
10437;DHT22;5265;50.006;9.202;2022-11-15T09:54:04;12.70;99.90
10437;DHT22;5265;50.006;9.202;2022-11-15T09:56:32;12.80;99.90
10437;DHT22;5265;50.006;9.202;2022-11-15T09:59:09;12.70;99.90
10437;DHT22;5265;50.006;9.202;2022-11-15T10:01:43;12.70;99.90
10437;DHT22;5265;50.006;9.202;2022-11-15T10:04:12;12.60;99.90
10437;DHT22;5265;50.006;9.202;2022-11-15T10:06:40;12.60;99.90
10437;DHT22;5265;50.006;9.202;2022-11-15T10:09:12;12.70;99.90
10437;DHT22;5265;50.006;9.202;2022-11-15T10:11:40;12.70;99.90
10437;DHT22;5265;50.006;9.202;2022-11-15T10:14:09;12.80;99.90
10437;DHT22;5265;50.006;9.202;2022-11-15T10:19:26;13.00;99.90
10437;DHT22;5265;50.006;9.202;2022-11-15T10:22:05;13.00;99.90
10437;DHT22;5265;50.006;9.202;2022-11-15T10:24:39;13.10;99.90
10437;DHT22;5265;50.006;9.202;2022-11-15T10:27:07;13.20;99.90
10437;DHT22;5265;50.006;9.202;2022-11-15T10:29:35;13.20;99.90
10437;DHT22;5265;50.006;9.202;2022-11-15T10:32:03;13.20;99.90
10437;DHT22;5265;50.006;9.202;2022-11-15T10:34:34;13.20;1.00
10437;DHT22;5265;50.006;9.202;2022-11-15T10:37:01;13.30;99.90
10437;DHT22;5265;50.006;9.202;2022-11-15T10:39:28;13.30;1.00
10437;DHT22;5265;50.006;9.202;2022-11-15T10:41:55;13.40;99.90
10437;DHT22;5265;50.006;9.202;2022-11-15T10:44:24;13.40;1.00
10437;DHT22;5265;50.006;9.202;2022-11-15T10:47:20;13.50;1.00
10437;DHT22;5265;50.006;9.202;2022-11-15T10:49:59;13.60;68.50
10437;DHT22;5265;50.006;9.202;2022-11-15T10:52:26;13.60;78.30
10437;DHT22;5265;50.006;9.202;2022-11-15T10:54:55;13.60;93.00
10437;DHT22;5265;50.006;9.202;2022-11-15T10:57:24;13.60;99.90
10437;DHT22;5265;50.006;9.202;2022-11-15T10:59:54;13.60;99.90
10437;DHT22;5265;50.006;9.202;2022-11-15T11:02:32;13.70;99.90
10437;DHT22;5265;50.006;9.202;2022-11-15T11:05:02;13.70;99.90
10437;DHT22;5265;50.006;9.202;2022-11-15T11:07:30;13.80;99.90
10437;DHT22;5265;50.006;9.202;2022-11-15T11:09:58;13.80;99.90
10437;DHT22;5265;50.006;9.202;2022-11-15T11:12:29;13.80;99.90
10437;DHT22;5265;50.006;9.202;2022-11-15T11:14:57;13.80;99.90
10437;DHT22;5265;50.006;9.202;2022-11-15T11:17:27;13.80;99.90
10437;DHT22;5265;50.006;9.202;2022-11-15T11:20:00;13.80;99.90
10437;DHT22;5265;50.006;9.202;2022-11-15T11:22:30;13.80;99.90
10437;DHT22;5265;50.006;9.202;2022-11-15T11:25:03;13.90;99.90
10437;DHT22;5265;50.006;9.202;2022-11-15T11:27:36;13.90;99.90
10437;DHT22;5265;50.006;9.202;2022-11-15T11:30:06;14.00;99.90
10437;DHT22;5265;50.006;9.202;2022-11-15T11:35:19;14.00;99.90
10437;DHT22;5265;50.006;9.202;2022-11-15T11:37:49;14.00;99.90
10437;DHT22;5265;50.006;9.202;2022-11-15T11:40:20;14.00;99.90
10437;DHT22;5265;50.006;9.202;2022-11-15T11:42:52;14.00;99.90
10437;DHT22;5265;50.006;9.202;2022-11-15T11:45:40;14.00;99.90
10437;DHT22;5265;50.006;9.202;2022-11-15T11:48:13;14.10;99.90
10437;DHT22;5265;50.006;9.202;2022-11-15T11:50:42;14.10;99.90
10437;DHT22;5265;50.006;9.202;2022-11-15T11:53:12;14.20;99.90
10437;DHT22;5265;50.006;9.202;2022-11-15T11:55:40;14.20;99.90
10437;DHT22;5265;50.006;9.202;2022-11-15T11:58:11;14.30;99.90
10437;DHT22;5265;50.006;9.202;2022-11-15T12:00:41;14.30;99.90
10437;DHT22;5265;50.006;9.202;2022-11-15T12:03:09;14.30;99.90
10437;DHT22;5265;50.006;9.202;2022-11-15T12:05:39;14.40;99.90
10437;DHT22;5265;50.006;9.202;2022-11-15T12:08:14;14.40;99.90
10437;DHT22;5265;50.006;9.202;2022-11-15T12:10:45;14.40;99.90
10437;DHT22;5265;50.006;9.202;2022-11-15T12:13:13;14.50;99.90
10437;DHT22;5265;50.006;9.202;2022-11-15T12:15:43;14.50;99.90
10437;DHT22;5265;50.006;9.202;2022-11-15T12:18:12;14.60;99.90
10437;DHT22;5265;50.006;9.202;2022-11-15T12:20:40;14.60;99.90
10437;DHT22;5265;50.006;9.202;2022-11-15T12:23:16;14.60;99.90
10437;DHT22;5265;50.006;9.202;2022-11-15T12:25:48;14.70;99.90
10437;DHT22;5265;50.006;9.202;2022-11-15T12:28:25;14.80;99.90
10437;DHT22;5265;50.006;9.202;2022-11-15T12:30:59;14.80;99.90
10437;DHT22;5265;50.006;9.202;2022-11-15T12:33:29;15.00;99.90
10437;DHT22;5265;50.006;9.202;2022-11-15T12:35:57;15.00;99.90
10437;DHT22;5265;50.006;9.202;2022-11-15T12:41:14;15.30;99.90
10437;DHT22;5265;50.006;9.202;2022-11-15T12:43:43;15.40;99.90
10437;DHT22;5265;50.006;9.202;2022-11-15T12:46:11;15.40;99.90
10437;DHT22;5265;50.006;9.202;2022-11-15T12:48:46;15.40;99.90
10437;DHT22;5265;50.006;9.202;2022-11-15T12:51:13;15.60;99.90
10437;DHT22;5265;50.006;9.202;2022-11-15T12:53:41;15.70;99.90
10437;DHT22;5265;50.006;9.202;2022-11-15T12:56:08;15.70;99.90
10437;DHT22;5265;50.006;9.202;2022-11-15T12:58:42;15.80;99.90
10437;DHT22;5265;50.006;9.202;2022-11-15T13:01:09;15.90;99.90
10437;DHT22;5265;50.006;9.202;2022-11-15T13:03:45;15.90;99.90
10437;DHT22;5265;50.006;9.202;2022-11-15T13:06:34;15.90;99.90
10437;DHT22;5265;50.006;9.202;2022-11-15T13:09:03;15.80;99.90
10437;DHT22;5265;50.006;9.202;2022-11-15T13:11:43;15.70;99.90
10437;DHT22;5265;50.006;9.202;2022-11-15T13:16:59;15.60;99.90
10437;DHT22;5265;50.006;9.202;2022-11-15T13:19:26;15.60;99.90
10437;DHT22;5265;50.006;9.202;2022-11-15T13:21:54;15.60;99.90
10437;DHT22;5265;50.006;9.202;2022-11-15T13:24:38;15.60;99.90
10437;DHT22;5265;50.006;9.202;2022-11-15T13:27:09;15.60;99.90
10437;DHT22;5265;50.006;9.202;2022-11-15T13:29:37;15.50;99.90
10437;DHT22;5265;50.006;9.202;2022-11-15T13:32:09;15.50;99.90
10437;DHT22;5265;50.006;9.202;2022-11-15T13:34:38;15.60;99.90
10437;DHT22;5265;50.006;9.202;2022-11-15T13:37:12;15.60;99.90
10437;DHT22;5265;50.006;9.202;2022-11-15T13:39:53;15.60;99.90
10437;DHT22;5265;50.006;9.202;2022-11-15T13:42:20;15.60;99.90
10437;DHT22;5265;50.006;9.202;2022-11-15T13:44:57;15.60;99.90
10437;DHT22;5265;50.006;9.202;2022-11-15T13:47:26;15.50;99.90
10437;DHT22;5265;50.006;9.202;2022-11-15T13:49:56;15.50;99.90
10437;DHT22;5265;50.006;9.202;2022-11-15T13:52:24;15.50;99.90
10437;DHT22;5265;50.006;9.202;2022-11-15T13:54:55;15.30;99.90
10437;DHT22;5265;50.006;9.202;2022-11-15T13:57:26;15.40;99.90
10437;DHT22;5265;50.006;9.202;2022-11-15T13:59:55;15.30;99.90
10437;DHT22;5265;50.006;9.202;2022-11-15T14:02:26;15.30;99.90
10437;DHT22;5265;50.006;9.202;2022-11-15T14:04:55;15.30;99.90
10437;DHT22;5265;50.006;9.202;2022-11-15T14:07:23;15.30;99.90
10437;DHT22;5265;50.006;9.202;2022-11-15T14:09:50;15.30;99.90
10437;DHT22;5265;50.006;9.202;2022-11-15T14:12:22;15.30;99.90
10437;DHT22;5265;50.006;9.202;2022-11-15T14:14:50;15.20;99.90
10437;DHT22;5265;50.006;9.202;2022-11-15T14:17:19;15.10;99.90
10437;DHT22;5265;50.006;9.202;2022-11-15T14:19:48;15.10;99.90
10437;DHT22;5265;50.006;9.202;2022-11-15T14:22:16;15.00;99.90
10437;DHT22;5265;50.006;9.202;2022-11-15T14:24:47;14.90;99.90
10437;DHT22;5265;50.006;9.202;2022-11-15T14:27:18;14.90;99.90
10437;DHT22;5265;50.006;9.202;2022-11-15T14:29:46;14.80;99.90
10437;DHT22;5265;50.006;9.202;2022-11-15T14:32:14;14.80;99.90
10437;DHT22;5265;50.006;9.202;2022-11-15T14:34:42;14.80;99.90
10437;DHT22;5265;50.006;9.202;2022-11-15T14:37:16;14.80;99.90
10437;DHT22;5265;50.006;9.202;2022-11-15T14:39:45;14.70;99.90
10437;DHT22;5265;50.006;9.202;2022-11-15T14:42:12;14.80;99.90
10437;DHT22;5265;50.006;9.202;2022-11-15T14:44:39;14.70;99.90
10437;DHT22;5265;50.006;9.202;2022-11-15T14:47:06;14.70;99.90
10437;DHT22;5265;50.006;9.202;2022-11-15T14:49:33;14.60;99.90
10437;DHT22;5265;50.006;9.202;2022-11-15T14:52:00;14.60;99.90
10437;DHT22;5265;50.006;9.202;2022-11-15T14:54:29;14.60;99.90
10437;DHT22;5265;50.006;9.202;2022-11-15T14:56:56;14.50;99.90
10437;DHT22;5265;50.006;9.202;2022-11-15T14:59:23;14.50;99.90
10437;DHT22;5265;50.006;9.202;2022-11-15T15:01:50;14.40;99.90
10437;DHT22;5265;50.006;9.202;2022-11-15T15:04:17;14.40;99.90
10437;DHT22;5265;50.006;9.202;2022-11-15T15:06:44;14.40;99.90
10437;DHT22;5265;50.006;9.202;2022-11-15T15:09:11;14.30;99.90
10437;DHT22;5265;50.006;9.202;2022-11-15T15:11:40;14.30;99.90
10437;DHT22;5265;50.006;9.202;2022-11-15T15:14:07;14.30;99.90
10437;DHT22;5265;50.006;9.202;2022-11-15T15:16:34;14.40;99.90
10437;DHT22;5265;50.006;9.202;2022-11-15T15:19:02;14.30;99.90
10437;DHT22;5265;50.006;9.202;2022-11-15T15:21:29;14.40;99.90
10437;DHT22;5265;50.006;9.202;2022-11-15T15:23:56;14.30;99.90
10437;DHT22;5265;50.006;9.202;2022-11-15T15:26:23;14.20;99.90
10437;DHT22;5265;50.006;9.202;2022-11-15T15:28:52;14.10;99.90
10437;DHT22;5265;50.006;9.202;2022-11-15T15:31:19;14.10;99.90
10437;DHT22;5265;50.006;9.202;2022-11-15T15:33:46;14.10;99.90
10437;DHT22;5265;50.006;9.202;2022-11-15T15:36:16;14.00;99.90
10437;DHT22;5265;50.006;9.202;2022-11-15T15:38:44;13.90;99.90
10437;DHT22;5265;50.006;9.202;2022-11-15T15:41:12;13.90;99.90
10437;DHT22;5265;50.006;9.202;2022-11-15T15:43:41;13.80;99.90
10437;DHT22;5265;50.006;9.202;2022-11-15T15:46:10;13.70;99.90
10437;DHT22;5265;50.006;9.202;2022-11-15T15:48:38;13.60;99.90
10437;DHT22;5265;50.006;9.202;2022-11-15T15:51:05;13.60;99.90
10437;DHT22;5265;50.006;9.202;2022-11-15T15:53:32;13.60;99.90
10437;DHT22;5265;50.006;9.202;2022-11-15T15:55:59;13.50;99.90
10437;DHT22;5265;50.006;9.202;2022-11-15T15:58:27;13.40;99.90
10437;DHT22;5265;50.006;9.202;2022-11-15T16:00:54;13.40;99.90
10437;DHT22;5265;50.006;9.202;2022-11-15T16:03:22;13.40;99.90
10437;DHT22;5265;50.006;9.202;2022-11-15T16:05:50;13.30;99.90
10437;DHT22;5265;50.006;9.202;2022-11-15T16:08:17;13.30;99.90
10437;DHT22;5265;50.006;9.202;2022-11-15T16:10:45;13.40;99.90
10437;DHT22;5265;50.006;9.202;2022-11-15T16:13:12;13.30;99.90
10437;DHT22;5265;50.006;9.202;2022-11-15T16:15:39;13.20;99.90
10437;DHT22;5265;50.006;9.202;2022-11-15T16:18:06;13.10;99.90
10437;DHT22;5265;50.006;9.202;2022-11-15T16:20:39;13.10;99.90
10437;DHT22;5265;50.006;9.202;2022-11-15T16:23:08;13.00;99.90
10437;DHT22;5265;50.006;9.202;2022-11-15T16:25:37;12.90;99.90
10437;DHT22;5265;50.006;9.202;2022-11-15T16:28:07;12.90;99.90
10437;DHT22;5265;50.006;9.202;2022-11-15T16:30:34;12.70;99.90
10437;DHT22;5265;50.006;9.202;2022-11-15T16:33:02;12.70;99.90
10437;DHT22;5265;50.006;9.202;2022-11-15T16:35:29;12.60;99.90
10437;DHT22;5265;50.006;9.202;2022-11-15T16:37:57;12.60;99.90
10437;DHT22;5265;50.006;9.202;2022-11-15T16:40:26;12.60;99.90
10437;DHT22;5265;50.006;9.202;2022-11-15T16:42:53;12.60;99.90
10437;DHT22;5265;50.006;9.202;2022-11-15T16:45:22;12.50;99.90
10437;DHT22;5265;50.006;9.202;2022-11-15T16:47:49;12.50;99.90
10437;DHT22;5265;50.006;9.202;2022-11-15T16:50:20;12.40;99.90
10437;DHT22;5265;50.006;9.202;2022-11-15T16:52:49;12.40;99.90
10437;DHT22;5265;50.006;9.202;2022-11-15T16:55:19;12.30;99.90
10437;DHT22;5265;50.006;9.202;2022-11-15T16:57:46;12.30;99.90
10437;DHT22;5265;50.006;9.202;2022-11-15T17:00:13;12.30;99.90
10437;DHT22;5265;50.006;9.202;2022-11-15T17:02:41;12.30;99.90
10437;DHT22;5265;50.006;9.202;2022-11-15T17:05:10;12.30;99.90
10437;DHT22;5265;50.006;9.202;2022-11-15T17:07:37;12.30;99.90
10437;DHT22;5265;50.006;9.202;2022-11-15T17:10:04;12.30;99.90
10437;DHT22;5265;50.006;9.202;2022-11-15T17:12:33;12.30;99.90
10437;DHT22;5265;50.006;9.202;2022-11-15T17:15:00;12.20;99.90
10437;DHT22;5265;50.006;9.202;2022-11-15T17:17:28;12.20;99.90
10437;DHT22;5265;50.006;9.202;2022-11-15T17:19:55;12.10;99.90
10437;DHT22;5265;50.006;9.202;2022-11-15T17:22:22;12.10;99.90
10437;DHT22;5265;50.006;9.202;2022-11-15T17:24:49;12.10;99.90
10437;DHT22;5265;50.006;9.202;2022-11-15T17:27:16;12.10;99.90
10437;DHT22;5265;50.006;9.202;2022-11-15T17:29:45;12.10;99.90
10437;DHT22;5265;50.006;9.202;2022-11-15T17:32:12;12.10;99.90